Lions, Louisiana
Current Conditions -  °F | °C
As of 12:55 PM on Thursday 23 Oct 2014 (Local Time) from K1L0 Reporting Station
Clear Clear  
Wind Chill: 53°   Ceiling: Unl
Heat Index: 53°   Visibility: 10mi
Dew Point: 29°   Wind: 9mph
Humidity: 39%   Direction: 20°NNE
Pressure: 30.09"   Gusts: NA
Location:  30.0699°N, 90.5574°W
Report Text: K1L0 231755Z AUTO 02008KT 10SM CLR 12/M02 A3009 RMK AO2 T01191017 10211 21314
Loading
Personal Weather Stations






























Interactive Weather Map
Tropical Storm Tracking
New forecast layout! Learn more

10-Day Weather Forecast

Advertisements
Track Severe Weather on mobile